Sample Charts Sidebar
> Live data! Your data is on the web site for you to access within minutes
 
> Detailed data is easily downloaded as data file, which can be opened with Excel
 
> Charts can be customised if necessary
  Chart 1
 

(A maximum of 50 rows are displayed here. Use "Export Data" to see all rows in the date range.)
Date Collected Temperature
(Celcius)
Wind-chill
(Celcius)
Wind Speed
(km/hr)
Gust
(km/hr)
Wind Direction
(degrees)
2019-10-19 05:00 7.9 7.7 2 5 182
2019-10-19 04:00 7.4 7.5 0 2 217
2019-10-19 03:00 8.3 8.5 0 2 178
2019-10-19 02:00 9.8 9.6 2 7 185
2019-10-19 01:00 10.0 9.8 2 8 199
2019-10-19 00:00 10.2 10.1 2 5 197
2019-10-18 23:00 10.2 10.1 2 5 216
2019-10-18 22:00 10.5 9.6 4 9 211
2019-10-18 21:00 10.6 9.5 4 8 214
2019-10-18 20:00 10.8 9.6 4 10 213
2019-10-18 19:00 11.2 9.5 5 11 225
2019-10-18 18:00 11.8 11.2 3 8 221
2019-10-18 17:00 12.3 11.2 4 9 219
2019-10-18 16:00 13.3 10.2 6 14 223
2019-10-18 15:00 14.1 11.6 6 16 219
2019-10-18 14:00 15.5 13.1 6 11 223
2019-10-18 13:00 14.5 13.9 3 8 235
2019-10-18 12:00 13.8 13.3 3 6 244
2019-10-18 11:00 13.5 13.2 3 6 236
2019-10-18 10:00 12.8 12.8 1 3 238
2019-10-18 09:00 12.4 12.4 1 2 239
2019-10-18 08:00 12.1 12.1 0 1 270
2019-10-18 07:00 12.0 11.9 0 1 203
2019-10-18 06:00 11.9 11.9 1 2 240
2019-10-18 05:00 12.0 11.9 2 5 214
2019-10-18 04:00 12.1 12.0 2 6 216
2019-10-18 03:00 12.3 11.7 3 7 223
2019-10-18 02:00 12.4 12.2 2 7 233
2019-10-18 01:00 12.4 12.4 2 5 240
2019-10-18 00:00 12.7 11.8 3 10 234
2019-10-17 23:00 12.8 12.2 3 10 252
2019-10-17 22:00 14.0 13.9 2 7 249
2019-10-17 21:00 15.3 15.3 1 2 72
2019-10-17 20:00 16.5 15.6 4 11 315
2019-10-17 19:00 17.2 16.4 4 9 319
2019-10-17 18:00 17.3 15.5 5 18 341
2019-10-17 17:00 17.6 15.1 6 17 355
2019-10-17 16:00 17.9 14.9 7 21 355
2019-10-17 15:00 17.9 14.5 8 22 344
2019-10-17 14:00 17.8 14.3 8 20 353
2019-10-17 13:00 18.3 15.0 8 19 9
2019-10-17 12:00 19.0 15.4 9 27 353
2019-10-17 11:00 18.3 13.6 10 25 359
2019-10-17 10:00 16.3 12.9 7 21 348
2019-10-17 09:00 17.2 13.4 8 22 348
2019-10-17 08:00 17.1 14.5 6 21 347
2019-10-17 07:00 17.1 13.6 8 19 359
2019-10-17 06:00 17.4 15.0 6 16 3
2019-10-17 05:00 17.1 15.4 5 15 13
2019-10-17 04:00 17.5 16.6 4 11 19